Time;durP1;ratioP1;P1;durP2;ratioP2;P2;SDS_P1;SDS_P2;PMS_P1;PMS_P2;Temp;Humidity;BMP_temperature;BMP_pressure;BME280_temperature;BME280_humidity;BME280_pressure;Samples;Min_cycle;Max_cycle;Signal;HPM_P1;HPM_P2
2024/01/29 00:00:26;;;;;;;2.85;2.20;;;;;;;;;;5033977;28;20045;-91
2024/01/29 00:02:53;;;;;;;4.82;2.72;;;;;;;;;;5034798;28;20049;-90
2024/01/29 00:05:21;;;;;;;4.82;2.80;;;;;;;;;;5034234;28;20049;-92
2024/01/29 00:07:48;;;;;;;5.60;2.88;;;;;;;;;;5034201;28;20049;-91
2024/01/29 00:10:16;;;;;;;5.03;2.55;;;;;;;;;;5044321;28;20041;-91
2024/01/29 00:12:44;;;;;;;5.07;2.40;;;;;;;;;;5046013;28;20460;-91
2024/01/29 00:15:12;;;;;;;3.05;2.25;;;;;;;;;;5034128;28;20490;-91
2024/01/29 00:17:39;;;;;;;3.42;2.50;;;;;;;;;;5034177;28;20053;-91
2024/01/29 00:20:06;;;;;;;7.47;2.72;;;;;;;;;;5034090;28;20096;-90
2024/01/29 00:22:34;;;;;;;5.28;2.35;;;;;;;;;;5033724;28;20053;-91
2024/01/29 00:25:01;;;;;;;4.03;1.98;;;;;;;;;;5033212;28;20100;-91
2024/01/29 00:27:28;;;;;;;2.42;2.08;;;;;;;;;;5032963;28;20046;-91
2024/01/29 00:29:56;;;;;;;2.08;1.92;;;;;;;;;;5033313;28;20096;-91
2024/01/29 00:32:24;;;;;;;3.05;1.90;;;;;;;;;;5033036;28;20075;-90
2024/01/29 00:34:53;;;;;;;2.22;1.63;;;;;;;;;;5032661;28;20064;-90
2024/01/29 00:37:22;;;;;;;4.35;2.28;;;;;;;;;;5032438;28;20390;-90
2024/01/29 00:39:50;;;;;;;2.63;1.70;;;;;;;;;;5032810;28;20513;-90
2024/01/29 00:42:18;;;;;;;1.15;1.00;;;;;;;;;;5032792;28;20053;-89
2024/01/29 00:44:47;;;;;;;0.77;0.77;;;;;;;;;;5032826;28;20504;-89
2024/01/29 00:47:14;;;;;;;1.20;0.60;;;;;;;;;;5032122;28;20050;-89
2024/01/29 00:49:42;;;;;;;0.60;0.60;;;;;;;;;;5032482;28;20394;-89
2024/01/29 00:52:09;;;;;;;0.70;0.70;;;;;;;;;;5032541;28;20502;-89
2024/01/29 00:54:37;;;;;;;0.70;0.70;;;;;;;;;;5024576;28;20060;-89
2024/01/29 00:57:04;;;;;;;3.30;1.15;;;;;;;;;;5032398;28;20054;-89
2024/01/29 00:59:31;;;;;;;0.82;0.82;;;;;;;;;;5032607;28;20092;-90
2024/01/29 01:01:58;;;;;;;0.82;0.70;;;;;;;;;;5032366;28;20104;-88
2024/01/29 01:04:26;;;;;;;1.15;0.88;;;;;;;;;;5032546;28;20093;-90
2024/01/29 01:06:53;;;;;;;2.00;0.93;;;;;;;;;;5033112;28;20054;-90
2024/01/29 01:09:20;;;;;;;0.60;0.57;;;;;;;;;;5032437;28;20049;-90
2024/01/29 01:11:48;;;;;;;1.30;0.70;;;;;;;;;;5032327;28;20107;-89
2024/01/29 01:14:15;;;;;;;2.22;0.82;;;;;;;;;;5033209;28;20049;-90
2024/01/29 01:16:42;;;;;;;0.90;0.90;;;;;;;;;;5032702;28;20099;-90
2024/01/29 01:19:09;;;;;;;1.58;0.82;;;;;;;;;;5033306;28;20050;-89
2024/01/29 01:21:37;;;;;;;1.30;1.00;;;;;;;;;;5024484;28;20076;-90
2024/01/29 01:24:04;;;;;;;1.40;0.90;;;;;;;;;;5036242;28;20048;-89
2024/01/29 01:26:31;;;;;;;1.77;0.90;;;;;;;;;;5037368;28;20489;-90
2024/01/29 01:28:59;;;;;;;1.00;1.00;;;;;;;;;;5032043;28;20137;-90
2024/01/29 01:31:26;;;;;;;1.30;1.05;;;;;;;;;;5031936;28;20119;-90
2024/01/29 01:33:55;;;;;;;1.02;1.00;;;;;;;;;;5033194;28;20059;-90
2024/01/29 01:36:24;;;;;;;0.98;0.90;;;;;;;;;;5032443;28;20521;-88
2024/01/29 01:38:51;;;;;;;0.82;0.82;;;;;;;;;;5033239;28;20060;-90
2024/01/29 01:41:19;;;;;;;2.05;1.13;;;;;;;;;;5031856;28;20077;-90
2024/01/29 01:43:46;;;;;;;0.70;0.70;;;;;;;;;;5031994;28;20046;-89
2024/01/29 01:46:18;;;;;;;2.58;0.93;;;;;;;;;;5036522;28;20140;-89
2024/01/29 01:48:46;;;;;;;1.70;0.98;;;;;;;;;;5036217;28;20059;-89
2024/01/29 01:51:14;;;;;;;1.42;0.75;;;;;;;;;;5035858;28;20103;-89
2024/01/29 01:53:41;;;;;;;0.80;0.80;;;;;;;;;;5036157;28;20049;-89
2024/01/29 01:56:08;;;;;;;0.73;0.73;;;;;;;;;;5036724;28;20081;-88
2024/01/29 01:58:36;;;;;;;1.08;0.65;;;;;;;;;;5027607;28;20068;-89
2024/01/29 02:01:03;;;;;;;1.10;0.93;;;;;;;;;;5036988;28;20064;-90
2024/01/29 02:03:31;;;;;;;0.70;0.70;;;;;;;;;;5036027;28;20505;-89
2024/01/29 02:05:58;;;;;;;0.90;0.90;;;;;;;;;;5035756;28;20445;-90
2024/01/29 02:08:26;;;;;;;2.00;1.00;;;;;;;;;;5036778;28;20136;-90
2024/01/29 02:10:54;;;;;;;1.55;1.10;;;;;;;;;;5036662;28;20061;-89
2024/01/29 02:13:21;;;;;;;1.13;0.80;;;;;;;;;;5035810;28;20073;-88
2024/01/29 02:15:49;;;;;;;0.90;0.90;;;;;;;;;;5036578;28;20049;-90
2024/01/29 02:18:16;;;;;;;1.02;0.80;;;;;;;;;;5033064;28;20093;-89
2024/01/29 02:20:43;;;;;;;1.10;1.00;;;;;;;;;;5036546;28;20049;-89
2024/01/29 02:23:10;;;;;;;0.95;0.77;;;;;;;;;;5035318;28;20058;-88
2024/01/29 02:25:38;;;;;;;2.75;1.20;;;;;;;;;;5035067;28;20092;-91
2024/01/29 02:28:05;;;;;;;0.80;0.80;;;;;;;;;;5036417;28;20103;-89
2024/01/29 02:30:33;;;;;;;1.13;0.93;;;;;;;;;;5035319;28;20406;-90
2024/01/29 02:33:00;;;;;;;1.25;0.93;;;;;;;;;;5035296;28;20055;-90
2024/01/29 02:35:27;;;;;;;1.05;0.90;;;;;;;;;;5034866;28;20068;-90
2024/01/29 02:37:55;;;;;;;1.15;0.93;;;;;;;;;;5036712;28;20072;-89
2024/01/29 02:40:22;;;;;;;2.28;1.00;;;;;;;;;;5037625;28;20057;-89
2024/01/29 02:42:49;;;;;;;1.25;1.02;;;;;;;;;;5035774;28;20049;-90
2024/01/29 02:45:16;;;;;;;2.40;1.20;;;;;;;;;;5032355;28;20560;-90
2024/01/29 02:47:44;;;;;;;3.70;1.40;;;;;;;;;;5034756;28;20179;-90
2024/01/29 02:50:11;;;;;;;3.08;0.88;;;;;;;;;;5034524;28;20056;-90
2024/01/29 02:52:38;;;;;;;2.20;1.30;;;;;;;;;;5034790;28;20049;-90
2024/01/29 02:55:06;;;;;;;1.10;0.88;;;;;;;;;;5035715;28;20080;-89
2024/01/29 02:57:34;;;;;;;1.23;1.13;;;;;;;;;;5033345;28;20057;-90
2024/01/29 03:00:01;;;;;;;1.67;1.15;;;;;;;;;;5034876;28;20053;-90
2024/01/29 03:02:28;;;;;;;2.05;1.40;;;;;;;;;;5034627;28;20095;-90
2024/01/29 03:04:55;;;;;;;1.80;1.40;;;;;;;;;;5035343;28;20057;-90
2024/01/29 03:07:23;;;;;;;2.13;1.20;;;;;;;;;;5034353;28;20050;-90
2024/01/29 03:09:50;;;;;;;1.92;1.00;;;;;;;;;;5034336;28;20041;-90
2024/01/29 03:12:17;;;;;;;1.45;1.10;;;;;;;;;;5034399;28;20049;-89
2024/01/29 03:14:44;;;;;;;1.40;1.20;;;;;;;;;;5035398;28;20049;-90
2024/01/29 03:17:12;;;;;;;2.03;1.27;;;;;;;;;;5034879;28;20083;-91
2024/01/29 03:19:40;;;;;;;1.85;1.20;;;;;;;;;;5033917;28;20080;-90
2024/01/29 03:22:07;;;;;;;2.53;1.50;;;;;;;;;;5035251;28;20055;-90
2024/01/29 03:24:34;;;;;;;2.15;1.40;;;;;;;;;;5035174;28;20045;-90
2024/01/29 03:27:02;;;;;;;1.48;1.00;;;;;;;;;;5034898;28;20416;-89
2024/01/29 03:29:29;;;;;;;1.63;0.80;;;;;;;;;;5034199;28;20073;-90
2024/01/29 03:31:56;;;;;;;1.83;1.23;;;;;;;;;;5030494;28;20450;-90
2024/01/29 03:34:23;;;;;;;2.05;1.38;;;;;;;;;;5047371;28;20052;-90
2024/01/29 03:36:51;;;;;;;1.55;1.45;;;;;;;;;;5034975;28;20053;-90
2024/01/29 03:39:18;;;;;;;1.75;1.20;;;;;;;;;;5035213;28;20053;-90
2024/01/29 03:41:45;;;;;;;2.72;1.63;;;;;;;;;;5034847;28;20470;-90
2024/01/29 03:44:14;;;;;;;2.65;1.63;;;;;;;;;;5030831;28;20049;-90
2024/01/29 03:46:41;;;;;;;1.50;1.40;;;;;;;;;;5033369;28;20053;-90
2024/01/29 03:49:08;;;;;;;2.65;1.40;;;;;;;;;;5030550;28;20483;-90
2024/01/29 03:51:36;;;;;;;1.58;1.35;;;;;;;;;;5027086;28;20057;-89
2024/01/29 03:54:03;;;;;;;2.08;1.27;;;;;;;;;;5037101;28;20148;-89
2024/01/29 03:56:30;;;;;;;2.80;1.70;;;;;;;;;;5035080;28;20059;-90
2024/01/29 03:58:57;;;;;;;3.13;1.52;;;;;;;;;;5033628;28;20482;-90
2024/01/29 04:01:28;;;;;;;2.75;1.80;;;;;;;;;;5034319;28;20084;-89
2024/01/29 04:03:56;;;;;;;3.05;1.52;;;;;;;;;;5033686;28;20077;-90
2024/01/29 04:06:23;;;;;;;3.78;1.65;;;;;;;;;;5032839;28;20050;-90
2024/01/29 04:08:51;;;;;;;1.38;1.27;;;;;;;;;;5033290;28;20108;-89
2024/01/29 04:11:18;;;;;;;1.92;1.70;;;;;;;;;;5033424;28;20091;-90
2024/01/29 04:13:45;;;;;;;1.63;1.30;;;;;;;;;;5033056;28;20081;-90
2024/01/29 04:16:13;;;;;;;1.63;1.50;;;;;;;;;;5034085;28;20116;-91
2024/01/29 04:18:40;;;;;;;4.45;2.30;;;;;;;;;;5034240;28;20049;-91
2024/01/29 04:21:08;;;;;;;4.20;2.15;;;;;;;;;;5034283;28;20045;-90
2024/01/29 04:23:35;;;;;;;2.03;1.83;;;;;;;;;;5033115;28;20081;-90
2024/01/29 04:26:04;;;;;;;3.33;1.70;;;;;;;;;;5033610;28;20099;-91
2024/01/29 04:28:31;;;;;;;1.65;1.50;;;;;;;;;;5016780;28;20063;-90
2024/01/29 04:30:58;;;;;;;3.03;1.60;;;;;;;;;;5033411;28;20129;-91
2024/01/29 04:33:32;;;;;;;1.63;1.33;;;;;;;;;;5033943;28;20046;-89
2024/01/29 04:36:00;;;;;;;3.17;1.90;;;;;;;;;;5033776;28;20049;-90
2024/01/29 04:38:27;;;;;;;3.50;2.30;;;;;;;;;;5032430;28;20056;-91
2024/01/29 04:40:54;;;;;;;2.53;1.95;;;;;;;;;;5029275;28;20046;-90
2024/01/29 04:43:22;;;;;;;5.65;3.20;;;;;;;;;;5045560;28;20073;-91
2024/01/29 04:45:50;;;;;;;10.00;7.57;;;;;;;;;;5033683;28;20516;-91
2024/01/29 04:48:18;;;;;;;9.95;6.65;;;;;;;;;;5033551;28;20183;-91
2024/01/29 04:50:45;;;;;;;22.65;13.18;;;;;;;;;;5033331;28;20060;-89
2024/01/29 04:53:12;;;;;;;2.88;1.63;;;;;;;;;;5033595;28;20049;-90
2024/01/29 04:55:40;;;;;;;2.65;2.13;;;;;;;;;;5028514;28;20077;-91
2024/01/29 04:58:07;;;;;;;1.50;1.40;;;;;;;;;;5042107;28;20053;-91
2024/01/29 05:00:35;;;;;;;1.90;1.58;;;;;;;;;;5032291;28;20136;-89
2024/01/29 05:03:02;;;;;;;1.40;1.30;;;;;;;;;;5032046;28;20060;-91
2024/01/29 05:05:29;;;;;;;1.92;1.10;;;;;;;;;;5033465;28;20053;-89
2024/01/29 05:07:57;;;;;;;2.13;1.60;;;;;;;;;;5035618;28;20147;-90
2024/01/29 05:10:24;;;;;;;1.27;1.17;;;;;;;;;;5032741;28;20103;-91
2024/01/29 05:12:51;;;;;;;1.65;1.48;;;;;;;;;;5032660;28;20049;-90
2024/01/29 05:15:18;;;;;;;3.25;1.80;;;;;;;;;;5032304;28;20041;-91
2024/01/29 05:17:46;;;;;;;3.20;1.55;;;;;;;;;;5033300;28;20061;-90
2024/01/29 05:20:13;;;;;;;1.23;1.15;;;;;;;;;;5031535;28;20068;-91
2024/01/29 05:22:41;;;;;;;2.67;1.40;;;;;;;;;;5032094;28;20565;-90
2024/01/29 05:25:08;;;;;;;2.25;1.40;;;;;;;;;;5033126;28;20076;-92
2024/01/29 05:27:35;;;;;;;2.30;1.52;;;;;;;;;;5031755;28;20552;-91
2024/01/29 05:30:03;;;;;;;2.10;1.58;;;;;;;;;;5032449;28;20180;-91
2024/01/29 05:32:30;;;;;;;3.53;1.63;;;;;;;;;;5033338;28;20045;-91
2024/01/29 05:34:58;;;;;;;2.47;1.50;;;;;;;;;;5028848;28;20050;-91
2024/01/29 05:37:25;;;;;;;2.33;1.73;;;;;;;;;;5045714;28;20045;-91
2024/01/29 05:39:52;;;;;;;3.47;1.90;;;;;;;;;;5032284;28;20131;-90
2024/01/29 05:42:20;;;;;;;5.38;1.77;;;;;;;;;;5032317;28;20045;-91
2024/01/29 05:44:47;;;;;;;2.88;1.73;;;;;;;;;;5031899;28;20508;-90
2024/01/29 05:47:15;;;;;;;3.45;1.73;;;;;;;;;;5031607;28;20050;-91
2024/01/29 05:49:43;;;;;;;2.42;1.67;;;;;;;;;;5031862;28;20054;-90
2024/01/29 05:52:11;;;;;;;3.25;1.90;;;;;;;;;;5030336;28;20060;-90
2024/01/29 05:54:38;;;;;;;2.13;1.52;;;;;;;;;;5024975;28;20057;-91
2024/01/29 05:57:06;;;;;;;2.45;1.60;;;;;;;;;;5032984;28;20045;-89
2024/01/29 05:59:33;;;;;;;3.33;2.00;;;;;;;;;;5031862;28;20099;-90
2024/01/29 06:02:00;;;;;;;3.30;1.50;;;;;;;;;;5032796;28;20103;-91
2024/01/29 06:04:28;;;;;;;1.50;1.40;;;;;;;;;;5031645;28;20053;-91
2024/01/29 06:06:55;;;;;;;2.25;1.85;;;;;;;;;;5028654;28;20061;-91
2024/01/29 06:09:24;;;;;;;1.98;1.50;;;;;;;;;;5046841;28;20053;-92
2024/01/29 06:11:51;;;;;;;3.60;1.80;;;;;;;;;;5033167;28;20054;-91
2024/01/29 06:14:18;;;;;;;4.55;2.28;;;;;;;;;;5032269;28;20144;-91
2024/01/29 06:16:46;;;;;;;4.00;2.05;;;;;;;;;;5031718;28;20042;-91
2024/01/29 06:19:15;;;;;;;4.97;2.58;;;;;;;;;;5031983;28;20387;-91
2024/01/29 06:21:43;;;;;;;2.65;1.80;;;;;;;;;;5034598;28;20426;-90
2024/01/29 06:24:10;;;;;;;4.20;1.88;;;;;;;;;;5034195;28;20053;-91
2024/01/29 06:26:38;;;;;;;3.25;1.85;;;;;;;;;;5023840;28;20053;-91
2024/01/29 06:29:05;;;;;;;2.28;1.90;;;;;;;;;;5033151;28;20489;-91
2024/01/29 06:31:32;;;;;;;4.10;1.88;;;;;;;;;;5034149;28;20099;-91
2024/01/29 06:34:02;;;;;;;1.92;1.65;;;;;;;;;;5036175;28;20053;-90
2024/01/29 06:36:30;;;;;;;4.05;2.13;;;;;;;;;;5035000;28;20072;-90
2024/01/29 06:39:00;;;;;;;3.97;1.88;;;;;;;;;;5036134;28;20054;-91
2024/01/29 06:41:28;;;;;;;3.40;2.10;;;;;;;;;;5034980;28;20068;-92
2024/01/29 06:43:55;;;;;;;3.25;2.13;;;;;;;;;;5036154;28;20056;-90
2024/01/29 06:46:23;;;;;;;3.88;1.88;;;;;;;;;;5034743;28;20493;-90
2024/01/29 06:48:50;;;;;;;2.20;1.85;;;;;;;;;;5035726;28;20413;-91
2024/01/29 06:51:17;;;;;;;3.65;1.83;;;;;;;;;;5034986;28;20050;-90
2024/01/29 06:53:44;;;;;;;2.42;1.77;;;;;;;;;;5035948;28;20108;-90
2024/01/29 06:56:12;;;;;;;2.88;2.05;;;;;;;;;;5035147;28;20041;-91
2024/01/29 06:58:40;;;;;;;4.70;2.15;;;;;;;;;;5035477;28;20053;-91
2024/01/29 07:01:08;;;;;;;4.13;2.22;;;;;;;;;;5034891;28;20109;-90
2024/01/29 07:03:35;;;;;;;3.55;1.88;;;;;;;;;;5034528;28;20077;-90
2024/01/29 07:06:03;;;;;;;3.92;2.13;;;;;;;;;;5034624;28;20085;-90
2024/01/29 07:08:30;;;;;;;3.92;2.13;;;;;;;;;;5034465;28;20084;-91
2024/01/29 07:10:57;;;;;;;2.15;1.98;;;;;;;;;;5034480;28;20054;-91
2024/01/29 07:13:25;;;;;;;4.75;1.90;;;;;;;;;;5034212;28;20049;-91
2024/01/29 07:15:53;;;;;;;14.23;2.80;;;;;;;;;;5034515;28;20072;-90
2024/01/29 07:18:20;;;;;;;3.95;1.95;;;;;;;;;;5035341;28;20053;-91
2024/01/29 07:20:49;;;;;;;4.13;2.10;;;;;;;;;;5035411;28;20076;-91
2024/01/29 07:23:17;;;;;;;4.28;2.15;;;;;;;;;;5035306;28;20057;-90
2024/01/29 07:25:44;;;;;;;4.50;2.30;;;;;;;;;;5034071;28;20072;-90
2024/01/29 07:28:12;;;;;;;5.57;2.13;;;;;;;;;;5033735;28;20057;-90
2024/01/29 07:30:39;;;;;;;2.47;1.92;;;;;;;;;;5034501;28;20127;-90
2024/01/29 07:33:06;;;;;;;3.28;1.90;;;;;;;;;;5035097;28;20512;-91
2024/01/29 07:35:34;;;;;;;4.72;2.03;;;;;;;;;;5035317;28;20064;-90
2024/01/29 07:38:01;;;;;;;8.95;2.58;;;;;;;;;;5035267;28;20049;-91
2024/01/29 07:40:28;;;;;;;17.77;2.83;;;;;;;;;;5034565;28;20049;-91
2024/01/29 07:42:55;;;;;;;38.92;4.57;;;;;;;;;;5034020;28;20491;-91
2024/01/29 07:45:24;;;;;;;5.10;1.70;;;;;;;;;;5033866;28;20064;-90
2024/01/29 07:47:51;;;;;;;4.68;2.28;;;;;;;;;;5033915;28;20045;-90
2024/01/29 07:50:18;;;;;;;2.55;2.28;;;;;;;;;;5033818;28;20056;-90
2024/01/29 07:52:45;;;;;;;3.72;1.90;;;;;;;;;;5033641;28;20045;-90
2024/01/29 07:55:13;;;;;;;1.70;1.60;;;;;;;;;;5033694;28;20068;-90
2024/01/29 07:57:40;;;;;;;2.22;1.70;;;;;;;;;;5033672;28;20103;-91
2024/01/29 08:00:08;;;;;;;4.72;1.90;;;;;;;;;;5034707;28;20063;-91
2024/01/29 08:02:35;;;;;;;2.95;1.60;;;;;;;;;;5033367;28;20049;-91
2024/01/29 08:05:03;;;;;;;3.70;1.77;;;;;;;;;;5034518;28;20532;-91
2024/01/29 08:07:31;;;;;;;5.10;2.15;;;;;;;;;;5033849;28;20124;-90
2024/01/29 08:10:01;;;;;;;6.93;2.25;;;;;;;;;;5034423;28;20492;-91
2024/01/29 08:12:28;;;;;;;7.40;2.70;;;;;;;;;;5033367;28;20049;-91
2024/01/29 08:14:56;;;;;;;6.57;2.00;;;;;;;;;;5033590;28;20067;-91
2024/01/29 08:17:23;;;;;;;12.18;2.20;;;;;;;;;;5033103;28;20087;-91
2024/01/29 08:19:51;;;;;;;2.17;1.98;;;;;;;;;;5029873;28;20050;-91
2024/01/29 08:22:19;;;;;;;5.55;1.90;;;;;;;;;;5044756;28;20054;-91
2024/01/29 08:24:46;;;;;;;2.60;1.55;;;;;;;;;;5033195;28;20486;-90
2024/01/29 08:27:15;;;;;;;2.38;1.38;;;;;;;;;;5033866;28;20049;-90
2024/01/29 08:29:42;;;;;;;4.20;1.88;;;;;;;;;;5034098;28;20494;-90
2024/01/29 08:32:09;;;;;;;2.38;1.48;;;;;;;;;;5033835;28;20570;-90
2024/01/29 08:34:37;;;;;;;2.00;1.60;;;;;;;;;;5025720;28;20413;-91
2024/01/29 08:37:05;;;;;;;2.38;1.55;;;;;;;;;;5033978;28;20068;-91
2024/01/29 08:39:32;;;;;;;1.73;1.52;;;;;;;;;;5032591;28;20072;-90
2024/01/29 08:41:59;;;;;;;5.35;2.00;;;;;;;;;;5032996;28;20052;-91
2024/01/29 08:44:27;;;;;;;3.85;1.67;;;;;;;;;;5033119;28;20057;-91
2024/01/29 08:46:54;;;;;;;2.85;1.77;;;;;;;;;;5032752;28;20049;-91
2024/01/29 08:49:21;;;;;;;2.15;1.95;;;;;;;;;;5033296;28;20064;-90
2024/01/29 08:51:48;;;;;;;2.00;1.77;;;;;;;;;;5035846;28;20073;-91
2024/01/29 08:54:16;;;;;;;1.75;1.50;;;;;;;;;;5032547;28;20065;-90
2024/01/29 08:56:43;;;;;;;3.28;1.75;;;;;;;;;;5033615;28;20301;-91
2024/01/29 08:59:11;;;;;;;3.53;1.38;;;;;;;;;;5032554;28;20104;-91
2024/01/29 09:01:38;;;;;;;6.20;1.60;;;;;;;;;;5025698;28;20042;-90
2024/01/29 09:04:06;;;;;;;2.47;1.40;;;;;;;;;;5032486;28;20501;-90
2024/01/29 09:06:33;;;;;;;3.20;1.45;;;;;;;;;;5033778;28;20053;-90
2024/01/29 09:09:01;;;;;;;2.80;1.70;;;;;;;;;;5032826;28;20045;-90
2024/01/29 09:11:28;;;;;;;6.35;2.22;;;;;;;;;;5032355;28;20057;-91
2024/01/29 09:13:55;;;;;;;3.40;1.48;;;;;;;;;;5032615;28;20049;-90
2024/01/29 09:16:23;;;;;;;2.58;1.73;;;;;;;;;;5033114;28;20053;-90
2024/01/29 09:18:50;;;;;;;1.80;1.70;;;;;;;;;;5032681;28;20077;-91
2024/01/29 09:21:17;;;;;;;3.63;1.60;;;;;;;;;;5029976;28;20057;-90
2024/01/29 09:23:45;;;;;;;1.90;1.60;;;;;;;;;;5032541;28;20490;-90
2024/01/29 09:26:12;;;;;;;6.97;2.03;;;;;;;;;;5029150;28;20085;-90
2024/01/29 09:28:41;;;;;;;2.83;1.30;;;;;;;;;;5032940;28;20128;-90
2024/01/29 09:31:09;;;;;;;1.98;1.48;;;;;;;;;;5032004;28;20049;-90
2024/01/29 09:33:36;;;;;;;4.38;1.90;;;;;;;;;;5024163;28;20049;-89
2024/01/29 09:36:04;;;;;;;2.22;1.63;;;;;;;;;;5032361;28;20050;-91
2024/01/29 09:38:31;;;;;;;6.50;3.60;;;;;;;;;;5031742;28;20061;-91
2024/01/29 09:40:59;;;;;;;3.33;1.90;;;;;;;;;;5032591;28;20072;-90
2024/01/29 09:43:27;;;;;;;2.78;1.90;;;;;;;;;;5031863;28;20045;-90
2024/01/29 09:45:55;;;;;;;3.13;1.65;;;;;;;;;;5032845;28;20060;-89
2024/01/29 09:48:23;;;;;;;2.65;1.70;;;;;;;;;;5032901;28;20709;-90
2024/01/29 09:50:51;;;;;;;3.53;1.88;;;;;;;;;;5033103;28;20057;-90
2024/01/29 09:53:20;;;;;;;1.65;1.52;;;;;;;;;;5029591;28;20096;-89
2024/01/29 09:55:48;;;;;;;2.40;1.40;;;;;;;;;;5031535;28;20061;-91
2024/01/29 09:58:15;;;;;;;4.25;1.67;;;;;;;;;;5032078;28;20057;-91
2024/01/29 10:00:43;;;;;;;2.90;1.67;;;;;;;;;;5032946;28;20077;-88
2024/01/29 10:03:16;;;;;;;1.80;1.65;;;;;;;;;;5032293;28;20418;-89
2024/01/29 10:05:43;;;;;;;;;;;;;;;;;;5028252;28;20107;-88
2024/01/29 10:08:11;;;;;;;4.32;1.70;;;;;;;;;;5036571;28;19975;-89
2024/01/29 10:10:38;;;;;;;2.35;1.80;;;;;;;;;;5035786;28;20416;-88
2024/01/29 10:13:09;;;;;;;3.10;1.70;;;;;;;;;;5035505;28;20053;-88
2024/01/29 10:15:36;;;;;;;1.60;1.50;;;;;;;;;;5036528;28;20045;-88
2024/01/29 10:18:10;;;;;;;3.00;2.00;;;;;;;;;;5035497;28;20049;-88
2024/01/29 10:20:38;;;;;;;2.72;1.60;;;;;;;;;;5028267;28;20046;-88
2024/01/29 10:23:05;;;;;;;1.60;1.50;;;;;;;;;;5035242;28;20057;-89
2024/01/29 10:25:34;;;;;;;2.22;1.52;;;;;;;;;;5034970;28;20050;-88
2024/01/29 10:28:11;;;;;;;4.90;1.70;;;;;;;;;;5035453;28;20059;-88
2024/01/29 10:30:39;;;;;;;2.13;1.70;;;;;;;;;;5035865;28;20064;-88
2024/01/29 10:33:07;;;;;;;1.83;1.73;;;;;;;;;;5035093;28;20512;-87
2024/01/29 10:35:36;;;;;;;2.78;2.20;;;;;;;;;;5034731;28;20438;-87
2024/01/29 10:38:05;;;;;;;3.58;2.28;;;;;;;;;;5035130;28;20325;-88
2024/01/29 10:40:32;;;;;;;2.25;1.75;;;;;;;;;;5034847;28;20046;-87
2024/01/29 10:43:01;;;;;;;1.83;1.65;;;;;;;;;;5034406;28;20099;-87
2024/01/29 10:45:29;;;;;;;3.17;2.60;;;;;;;;;;5034635;28;20399;-88
2024/01/29 10:48:20;;;;;;;3.78;1.85;;;;;;;;;;5034948;28;20064;-87
2024/01/29 10:50:48;;;;;;;2.75;2.08;;;;;;;;;;5030036;28;20046;-86
2024/01/29 10:53:16;;;;;;;2.17;1.95;;;;;;;;;;5035847;28;20077;-88
2024/01/29 10:55:50;;;;;;;2.35;1.80;;;;;;;;;;5035152;28;20096;-87
2024/01/29 10:58:18;;;;;;;3.10;1.70;;;;;;;;;;5034516;28;20501;-87
2024/01/29 11:00:45;;;;;;;13.55;2.53;;;;;;;;;;5034651;28;20085;-87
2024/01/29 11:03:13;;;;;;;5.30;2.00;;;;;;;;;;5035719;28;20065;-88
2024/01/29 11:05:48;;;;;;;2.42;1.77;;;;;;;;;;5035258;28;20457;-87
2024/01/29 11:08:19;;;;;;;2.95;1.77;;;;;;;;;;5034375;28;20053;-88
2024/01/29 11:10:47;;;;;;;3.10;1.88;;;;;;;;;;5034298;28;20049;-87
2024/01/29 11:13:14;;;;;;;2.20;1.70;;;;;;;;;;5034150;28;20050;-87
2024/01/29 11:15:42;;;;;;;2.92;1.70;;;;;;;;;;5030703;28;20404;-88
2024/01/29 11:18:10;;;;;;;2.35;1.88;;;;;;;;;;5042850;28;20136;-87
2024/01/29 11:20:39;;;;;;;6.00;1.80;;;;;;;;;;5034903;28;20057;-88
2024/01/29 11:23:09;;;;;;;1.85;1.60;;;;;;;;;;5034124;28;20165;-88
2024/01/29 11:25:50;;;;;;;;;;;;;;;;;;5028232;28;20049;-87
2024/01/29 11:28:18;;;;;;;2.70;2.00;;;;;;;;;;5034416;28;19920;-87
2024/01/29 11:30:50;;;;;;;2.30;2.10;;;;;;;;;;5034679;28;20391;-87
2024/01/29 11:33:18;;;;;;;2.63;1.98;;;;;;;;;;5034383;28;20076;-87
2024/01/29 11:35:46;;;;;;;3.22;2.00;;;;;;;;;;5030736;28;20054;-87
2024/01/29 11:38:14;;;;;;;2.28;1.80;;;;;;;;;;5044498;28;20068;-87
2024/01/29 11:40:42;;;;;;;2.97;2.03;;;;;;;;;;5034292;28;20057;-87
2024/01/29 11:43:17;;;;;;;2.00;1.80;;;;;;;;;;5033902;28;20057;-88
2024/01/29 11:45:46;;;;;;;2.28;1.90;;;;;;;;;;5027022;28;20061;-88
2024/01/29 11:48:15;;;;;;;6.25;2.20;;;;;;;;;;5033764;28;20053;-88
2024/01/29 11:50:45;;;;;;;11.60;2.60;;;;;;;;;;5033744;28;20049;-87
2024/01/29 11:53:14;;;;;;;2.75;2.00;;;;;;;;;;5033663;28;20132;-86
2024/01/29 11:55:42;;;;;;;3.28;2.20;;;;;;;;;;5033268;28;20053;-88
2024/01/29 11:58:11;;;;;;;2.63;1.80;;;;;;;;;;5033820;28;20478;-87
2024/01/29 12:00:39;;;;;;;3.30;2.13;;;;;;;;;;5034230;28;20113;-87
2024/01/29 12:03:10;;;;;;;3.15;2.17;;;;;;;;;;5033655;28;20502;-88
2024/01/29 12:05:38;;;;;;;2.30;1.90;;;;;;;;;;5025928;28;20088;-87
2024/01/29 12:08:15;;;;;;;3.25;1.90;;;;;;;;;;5033650;28;20068;-87
2024/01/29 12:10:43;;;;;;;2.28;1.95;;;;;;;;;;5026014;28;20057;-87
2024/01/29 12:13:14;;;;;;;4.82;2.05;;;;;;;;;;5033290;28;20050;-87
2024/01/29 12:15:41;;;;;;;2.45;2.03;;;;;;;;;;5033758;28;20119;-86
2024/01/29 12:18:13;;;;;;;9.38;2.50;;;;;;;;;;5033428;28;20053;-86
2024/01/29 12:20:40;;;;;;;4.18;2.25;;;;;;;;;;5025825;28;20466;-87
2024/01/29 12:23:07;;;;;;;4.43;2.03;;;;;;;;;;5033436;28;20049;-87
2024/01/29 12:25:37;;;;;;;3.63;2.08;;;;;;;;;;5032691;28;20103;-87
2024/01/29 12:28:06;;;;;;;4.93;2.00;;;;;;;;;;5032807;28;20065;-86
2024/01/29 12:30:33;;;;;;;4.57;2.10;;;;;;;;;;5032873;28;20060;-86
2024/01/29 12:33:00;;;;;;;7.65;2.53;;;;;;;;;;5033448;28;20505;-87
2024/01/29 12:35:29;;;;;;;3.42;2.00;;;;;;;;;;5033791;28;20045;-87
2024/01/29 12:38:09;;;;;;;3.53;2.17;;;;;;;;;;5033296;28;20045;-84
2024/01/29 12:40:37;;;;;;;6.60;2.22;;;;;;;;;;5024608;28;20445;-87
2024/01/29 12:43:05;;;;;;;8.98;2.05;;;;;;;;;;5032997;28;20530;-86
2024/01/29 12:45:33;;;;;;;3.90;2.10;;;;;;;;;;5032520;28;20155;-87
2024/01/29 12:48:17;;;;;;;15.18;3.08;;;;;;;;;;5032932;28;20103;-85
2024/01/29 12:50:45;;;;;;;4.88;2.40;;;;;;;;;;5025456;28;20123;-86
2024/01/29 12:53:13;;;;;;;7.90;2.17;;;;;;;;;;5032538;28;20053;-86
2024/01/29 12:55:40;;;;;;;3.38;2.38;;;;;;;;;;5032210;28;20469;-87
2024/01/29 12:58:08;;;;;;;8.13;2.63;;;;;;;;;;5032759;28;20076;-86
2024/01/29 13:00:39;;;;;;;3.60;2.60;;;;;;;;;;5032413;28;20045;-89
2024/01/29 13:03:08;;;;;;;3.53;1.95;;;;;;;;;;5032539;28;20057;-87
2024/01/29 13:05:36;;;;;;;5.85;2.40;;;;;;;;;;5032018;28;20050;-86
2024/01/29 13:08:04;;;;;;;12.63;3.15;;;;;;;;;;5032460;28;20087;-86
2024/01/29 13:10:31;;;;;;;3.63;2.10;;;;;;;;;;5032312;28;20119;-87
2024/01/29 13:13:07;;;;;;;3.03;2.25;;;;;;;;;;5032530;28;20557;-88
2024/01/29 13:15:35;;;;;;;6.97;2.60;;;;;;;;;;5032344;28;20061;-88
2024/01/29 13:18:02;;;;;;;7.07;2.55;;;;;;;;;;5032132;28;20132;-88
2024/01/29 13:20:30;;;;;;;4.15;2.33;;;;;;;;;;5032051;28;20053;-88
2024/01/29 13:22:58;;;;;;;6.70;2.22;;;;;;;;;;5032303;28;20045;-88
2024/01/29 13:25:25;;;;;;;4.38;2.17;;;;;;;;;;5032196;28;20053;-88
2024/01/29 13:27:52;;;;;;;4.32;2.33;;;;;;;;;;5032108;28;20112;-88
2024/01/29 13:30:20;;;;;;;3.83;2.92;;;;;;;;;;5031858;28;20053;-88
2024/01/29 13:32:47;;;;;;;8.30;2.53;;;;;;;;;;5031997;28;20056;-89
2024/01/29 13:35:14;;;;;;;3.47;2.13;;;;;;;;;;5032092;28;20084;-89
2024/01/29 13:37:41;;;;;;;8.45;2.90;;;;;;;;;;5032175;28;20536;-88
2024/01/29 13:40:09;;;;;;;9.20;3.40;;;;;;;;;;5032705;28;20383;-88
2024/01/29 13:42:37;;;;;;;13.68;3.40;;;;;;;;;;5028029;28;20049;-88
2024/01/29 13:45:07;;;;;;;18.42;3.33;;;;;;;;;;5035959;28;20111;-88
2024/01/29 13:47:35;;;;;;;4.15;2.47;;;;;;;;;;5036268;28;20557;-88
2024/01/29 13:50:03;;;;;;;3.78;2.33;;;;;;;;;;5036426;28;20049;-88
2024/01/29 13:52:31;;;;;;;8.75;2.47;;;;;;;;;;5036206;28;20048;-86
2024/01/29 13:54:59;;;;;;;4.82;2.35;;;;;;;;;;5035715;28;20065;-88
2024/01/29 13:57:26;;;;;;;3.50;2.20;;;;;;;;;;5035580;28;20050;-85
2024/01/29 13:59:53;;;;;;;9.50;3.15;;;;;;;;;;5035762;28;20126;-87
2024/01/29 14:02:22;;;;;;;12.40;3.15;;;;;;;;;;5035856;28;20045;-89
2024/01/29 14:04:49;;;;;;;8.75;2.65;;;;;;;;;;5036209;28;20054;-89
2024/01/29 14:07:16;;;;;;;8.35;2.80;;;;;;;;;;5035815;28;20045;-88
2024/01/29 14:09:44;;;;;;;9.82;3.03;;;;;;;;;;5035850;28;20076;-87
2024/01/29 14:12:11;;;;;;;5.00;2.63;;;;;;;;;;5035281;28;20100;-85
2024/01/29 14:14:38;;;;;;;18.67;4.00;;;;;;;;;;5035604;28;20060;-87
2024/01/29 14:17:13;;;;;;;21.10;4.20;;;;;;;;;;5035582;28;20049;-88
2024/01/29 14:19:41;;;;;;;11.98;3.78;;;;;;;;;;5035028;28;20050;-88
2024/01/29 14:22:09;;;;;;;17.90;4.03;;;;;;;;;;5034401;28;20080;-88
2024/01/29 14:24:37;;;;;;;9.77;3.38;;;;;;;;;;5035028;28;20049;-88
2024/01/29 14:27:04;;;;;;;11.52;3.28;;;;;;;;;;5035272;28;20439;-88
2024/01/29 14:29:32;;;;;;;7.40;2.78;;;;;;;;;;5034388;28;20057;-89
2024/01/29 14:31:59;;;;;;;10.43;2.50;;;;;;;;;;5035580;28;20049;-88
2024/01/29 14:34:27;;;;;;;14.20;5.05;;;;;;;;;;5033991;28;20124;-89
2024/01/29 14:36:55;;;;;;;14.73;4.30;;;;;;;;;;5034989;28;20053;-89
2024/01/29 14:39:22;;;;;;;14.68;4.15;;;;;;;;;;5035772;28;20061;-88
2024/01/29 14:41:50;;;;;;;15.77;4.85;;;;;;;;;;5034928;28;20480;-89
2024/01/29 14:44:18;;;;;;;13.52;3.88;;;;;;;;;;5035356;28;20049;-89
2024/01/29 14:46:45;;;;;;;12.80;3.17;;;;;;;;;;5035255;28;20107;-89